createdAt,value
2018-12-12T00:01:33.616Z,10.23
2018-12-12T00:04:02.336Z,15.38
2018-12-12T00:06:31.060Z,16.12
2018-12-12T00:08:59.739Z,22.20
2018-12-12T00:11:28.532Z,28.27
2018-12-12T00:13:57.224Z,21.07
2018-12-12T00:16:25.815Z,28.55
2018-12-12T00:18:54.428Z,19.82
2018-12-12T00:21:23.199Z,14.05
2018-12-12T00:23:51.888Z,19.73
2018-12-12T00:26:20.681Z,14.70
2018-12-12T00:28:49.378Z,17.32
2018-12-12T00:31:18.896Z,19.65
2018-12-12T00:33:47.375Z,17.15
2018-12-12T00:36:15.981Z,13.62
2018-12-12T00:38:44.664Z,16.40
2018-12-12T00:41:13.139Z,15.98
2018-12-12T00:43:41.526Z,15.75
2018-12-12T00:46:10.132Z,15.50
2018-12-12T00:48:39.674Z,13.78
2018-12-12T00:51:08.275Z,16.35
2018-12-12T00:53:36.888Z,15.30
2018-12-12T00:56:11.823Z,12.82
2018-12-12T00:58:40.599Z,23.92
2018-12-12T01:01:09.495Z,18.48
2018-12-12T01:03:38.317Z,23.18
2018-12-12T01:06:07.172Z,22.42
2018-12-12T01:08:35.864Z,12.82
2018-12-12T01:12:17.644Z,13.62
2018-12-12T01:14:46.336Z,14.30
2018-12-12T01:17:15.031Z,16.05
2018-12-12T01:19:43.731Z,13.80
2018-12-12T01:22:13.283Z,14.80
2018-12-12T01:24:41.958Z,17.20
2018-12-12T01:27:10.670Z,24.77
2018-12-12T01:29:45.695Z,20.77
2018-12-12T01:32:14.375Z,22.50
2018-12-12T01:34:42.835Z,13.22
2018-12-12T01:37:11.716Z,18.90
2018-12-12T01:39:40.396Z,13.08
2018-12-12T01:42:09.185Z,17.30
2018-12-12T01:44:37.977Z,19.80
2018-12-12T01:47:06.765Z,15.03
2018-12-12T01:49:36.264Z,18.35
2018-12-12T01:52:05.763Z,16.62
2018-12-12T01:54:34.623Z,16.67
2018-12-12T01:57:03.428Z,21.02
2018-12-12T01:59:32.120Z,11.97
2018-12-12T02:02:00.820Z,15.00
2018-12-12T02:04:29.503Z,15.00
2018-12-12T02:06:58.204Z,17.32
2018-12-12T02:09:26.888Z,16.30
2018-12-12T02:11:55.605Z,17.12
2018-12-12T02:14:24.325Z,33.83
2018-12-12T02:16:53.819Z,19.92
2018-12-12T02:19:22.607Z,19.45
2018-12-12T02:21:51.310Z,14.45
2018-12-12T02:24:26.181Z,14.18
2018-12-12T02:26:54.863Z,16.00
2018-12-12T02:29:23.570Z,20.40
2018-12-12T02:31:52.328Z,19.45
2018-12-12T02:34:21.106Z,19.23
2018-12-12T02:36:50.615Z,16.02
2018-12-12T02:39:19.326Z,18.60
2018-12-12T02:41:48.033Z,27.55
2018-12-12T02:44:16.720Z,22.60
2018-12-12T02:46:45.444Z,21.27
2018-12-12T02:49:14.277Z,19.57
2018-12-12T02:51:42.984Z,26.02
2018-12-12T02:54:11.676Z,19.40
2018-12-12T02:56:40.406Z,23.38
2018-12-12T02:59:15.227Z,22.42
2018-12-12T03:01:43.996Z,22.67
2018-12-12T03:04:12.717Z,18.37
2018-12-12T03:06:41.427Z,23.18
2018-12-12T03:09:16.413Z,20.48
2018-12-12T03:11:45.177Z,18.82
2018-12-12T03:14:19.993Z,22.25
2018-12-12T03:16:48.681Z,18.95
2018-12-12T03:19:19.325Z,20.90
2018-12-12T03:21:48.062Z,19.32
2018-12-12T03:24:17.600Z,22.52
2018-12-12T03:26:52.537Z,18.37
2018-12-12T03:29:21.276Z,21.35
2018-12-12T03:31:49.956Z,24.90
2018-12-12T03:34:18.696Z,25.27
2018-12-12T03:36:47.419Z,17.12
2018-12-12T03:39:16.167Z,29.75
2018-12-12T03:41:44.965Z,20.62
2018-12-12T03:44:14.461Z,15.38
2018-12-12T03:46:43.212Z,17.57
2018-12-12T03:49:11.689Z,21.52
2018-12-12T03:51:46.601Z,19.82
2018-12-12T03:54:15.281Z,22.98
2018-12-12T03:56:44.103Z,23.73
2018-12-12T03:59:12.755Z,20.23
2018-12-12T04:01:41.635Z,16.40
2018-12-12T04:04:10.324Z,18.52
2018-12-12T04:06:45.184Z,24.72
2018-12-12T04:09:13.922Z,22.32
2018-12-12T04:11:43.507Z,29.30
2018-12-12T04:14:12.247Z,18.02
2018-12-12T04:16:40.960Z,20.75
2018-12-12T04:19:13.676Z,18.10
2018-12-12T04:21:42.467Z,21.15
2018-12-12T04:24:12.059Z,25.35
2018-12-12T04:26:40.764Z,25.90
2018-12-12T04:29:09.460Z,27.48
2018-12-12T04:31:38.171Z,21.80
2018-12-12T04:34:06.948Z,20.08
2018-12-12T04:36:35.732Z,35.43
2018-12-12T04:39:07.012Z,35.90
2018-12-12T04:41:35.686Z,35.03
2018-12-12T04:44:04.456Z,22.67
2018-12-12T04:46:33.143Z,25.30
2018-12-12T04:49:02.663Z,18.75
2018-12-12T04:51:31.367Z,25.75
2018-12-12T04:54:05.360Z,29.02
2018-12-12T04:56:34.066Z,24.60
2018-12-12T04:59:03.127Z,23.02
2018-12-12T05:01:32.632Z,25.62
2018-12-12T05:04:07.536Z,26.07
2018-12-12T05:06:36.339Z,40.20
2018-12-12T05:09:07.136Z,30.23
2018-12-12T05:11:42.120Z,20.75
2018-12-12T05:14:10.808Z,24.32
2018-12-12T05:16:42.463Z,28.32
2018-12-12T05:19:11.236Z,32.58
2018-12-12T05:21:39.931Z,24.47
2018-12-12T05:24:08.632Z,22.37
2018-12-12T05:26:37.343Z,26.12
2018-12-12T05:29:06.047Z,24.02
2018-12-12T05:31:34.863Z,28.52
2018-12-12T05:34:09.731Z,29.85
2018-12-12T05:36:38.481Z,27.48
2018-12-12T05:39:07.564Z,24.65
2018-12-12T05:41:36.339Z,28.87
2018-12-12T05:44:05.163Z,28.25
2018-12-12T05:46:34.679Z,28.57
2018-12-12T05:49:03.372Z,22.82
2018-12-12T05:51:38.179Z,23.12
2018-12-12T05:54:06.864Z,36.40
2018-12-12T05:56:35.619Z,24.43
2018-12-12T05:59:10.456Z,20.05
2018-12-12T06:01:39.148Z,22.50
2018-12-12T06:04:07.834Z,28.57
2018-12-12T06:06:36.611Z,27.77
2018-12-12T06:09:06.883Z,22.13
2018-12-12T06:11:41.371Z,18.85
2018-12-12T06:14:09.971Z,21.65
2018-12-12T06:16:39.251Z,23.52
2018-12-12T06:19:07.615Z,29.65
2018-12-12T06:21:40.188Z,29.18
2018-12-12T06:24:08.959Z,24.50
2018-12-12T06:26:37.821Z,29.12
2018-12-12T06:29:07.453Z,27.27
2018-12-12T06:31:37.112Z,24.87
2018-12-12T06:34:05.804Z,32.98
2018-12-12T06:36:34.488Z,26.73
2018-12-12T06:39:06.487Z,25.45
2018-12-12T06:41:34.967Z,28.17
2018-12-12T06:44:05.516Z,26.52
2018-12-12T06:46:40.393Z,22.10
2018-12-12T06:49:09.147Z,28.25
2018-12-12T06:51:37.833Z,26.62
2018-12-12T06:54:12.782Z,29.37
2018-12-12T06:56:41.467Z,22.60
2018-12-12T06:59:16.396Z,22.55
2018-12-12T07:01:51.283Z,24.02
2018-12-12T07:04:26.376Z,22.62
2018-12-12T07:06:55.534Z,28.15
2018-12-12T07:09:25.214Z,25.55
2018-12-12T07:11:53.906Z,32.28
2018-12-12T07:14:22.599Z,37.80
2018-12-12T07:16:51.482Z,33.70
2018-12-12T07:19:26.384Z,44.00
2018-12-12T07:21:55.138Z,33.83
2018-12-12T07:24:30.039Z,31.97
2018-12-12T07:26:58.799Z,36.13
2018-12-12T07:29:33.722Z,35.48
2018-12-12T07:32:02.741Z,38.00
2018-12-12T07:34:37.803Z,30.57
2018-12-12T07:37:06.480Z,28.67
2018-12-12T07:39:35.992Z,42.45
2018-12-12T07:42:10.981Z,46.65
2018-12-12T07:44:39.519Z,50.30
2018-12-12T07:47:14.505Z,40.88
2018-12-12T07:49:49.339Z,28.98
2018-12-12T07:52:24.171Z,31.07
2018-12-12T07:54:58.831Z,35.75
2018-12-12T07:57:28.147Z,49.83
2018-12-12T07:59:56.766Z,31.07
2018-12-12T08:02:31.720Z,30.68
2018-12-12T08:05:00.573Z,35.50
2018-12-12T08:07:28.978Z,30.88
2018-12-12T08:09:57.366Z,39.00
2018-12-12T08:12:25.740Z,33.78
2018-12-12T08:15:00.455Z,35.38
2018-12-12T08:17:29.143Z,30.90
2018-12-12T08:19:57.849Z,29.92
2018-12-12T08:22:26.545Z,38.65
2018-12-12T08:25:01.567Z,33.78
2018-12-12T08:27:30.324Z,31.40
2018-12-12T08:29:59.017Z,30.40
2018-12-12T08:32:27.711Z,34.50
2018-12-12T08:34:56.407Z,33.13
2018-12-12T08:37:24.962Z,23.62
2018-12-12T08:39:53.305Z,43.92
2018-12-12T08:42:28.103Z,32.83
2018-12-12T08:44:56.805Z,41.33
2018-12-12T08:47:25.263Z,41.65
2018-12-12T08:49:53.892Z,31.80
2018-12-12T08:52:22.662Z,33.48
2018-12-12T08:54:51.436Z,29.27
2018-12-12T08:57:26.382Z,37.70
2018-12-12T08:59:54.912Z,29.70
2018-12-12T09:02:29.664Z,36.75
2018-12-12T09:04:58.352Z,26.55
2018-12-12T09:07:26.818Z,36.10
2018-12-12T09:09:55.258Z,32.40
2018-12-12T09:12:23.647Z,32.78
2018-12-12T09:14:52.246Z,29.63
2018-12-12T09:17:20.928Z,25.55
2018-12-12T09:19:49.613Z,32.38
2018-12-12T09:22:24.383Z,29.45
2018-12-12T09:24:53.905Z,46.53
2018-12-12T09:27:28.869Z,26.23
2018-12-12T09:29:57.330Z,27.73
2018-12-12T09:32:25.919Z,23.90
2018-12-12T09:35:00.699Z,31.67
2018-12-12T09:37:30.345Z,29.32
2018-12-12T09:39:59.347Z,32.87
2018-12-12T09:42:28.052Z,31.27
2018-12-12T09:45:02.951Z,42.87
2018-12-12T09:47:31.599Z,25.90
2018-12-12T09:50:06.441Z,33.23
2018-12-12T09:52:35.179Z,27.00
2018-12-12T09:55:03.711Z,28.13
2018-12-12T09:57:32.315Z,18.37
2018-12-12T10:00:07.284Z,24.07
2018-12-12T10:02:35.967Z,20.10
2018-12-12T10:05:05.146Z,17.63
2018-12-12T10:07:39.635Z,16.83
2018-12-12T10:10:08.307Z,22.77
2018-12-12T10:12:42.903Z,17.90
2018-12-12T10:15:11.355Z,16.47
2018-12-12T10:17:40.746Z,21.43
2018-12-12T10:20:15.824Z,19.70
2018-12-12T10:22:44.655Z,22.77
2018-12-12T10:25:13.409Z,18.57
2018-12-12T10:27:42.109Z,14.00
2018-12-12T10:30:16.835Z,13.87
2018-12-12T10:32:45.626Z,18.67
2018-12-12T10:35:14.645Z,15.60
2018-12-12T10:37:43.242Z,24.23
2018-12-12T10:40:17.913Z,15.63
2018-12-12T10:42:50.487Z,15.80
2018-12-12T10:45:25.251Z,21.90
2018-12-12T10:47:53.988Z,17.70
2018-12-12T10:50:22.741Z,15.90
2018-12-12T10:52:57.693Z,23.53
2018-12-12T10:55:26.405Z,11.90
2018-12-12T10:58:01.410Z,18.73
2018-12-12T11:00:40.038Z,16.02
2018-12-12T11:03:20.180Z,13.45
2018-12-12T11:05:48.635Z,14.40
2018-12-12T11:08:23.079Z,11.90
2018-12-12T11:10:58.077Z,26.02
2018-12-12T11:13:32.739Z,20.37
2018-12-12T11:16:01.339Z,15.95
2018-12-12T11:18:30.073Z,22.25
2018-12-12T11:21:05.063Z,19.07
2018-12-12T11:23:33.527Z,19.67
2018-12-12T11:26:02.131Z,18.48
2018-12-12T11:28:30.827Z,19.35
2018-12-12T11:31:05.952Z,17.17
2018-12-12T11:33:34.415Z,16.95
2018-12-12T11:36:03.179Z,17.92
2018-12-12T11:38:31.921Z,16.45
2018-12-12T11:41:05.436Z,23.73
2018-12-12T11:43:40.319Z,25.00
2018-12-12T11:46:08.987Z,12.37
2018-12-12T11:48:37.555Z,12.07
2018-12-12T11:51:06.175Z,13.80
2018-12-12T11:53:34.853Z,17.52
2018-12-12T11:56:03.399Z,13.80
2018-12-12T11:58:32.059Z,10.03
2018-12-12T12:01:00.819Z,16.15
2018-12-12T12:03:29.500Z,19.53
2018-12-12T12:05:58.173Z,8.60
2018-12-12T12:08:26.636Z,9.07
2018-12-12T12:10:55.122Z,9.67
2018-12-12T12:13:25.314Z,17.00
2018-12-12T12:15:59.867Z,14.70
2018-12-12T12:18:34.618Z,18.10
2018-12-12T12:21:03.244Z,9.90
2018-12-12T12:23:31.943Z,13.93
2018-12-12T12:26:06.816Z,15.87
2018-12-12T12:28:35.323Z,10.60
2018-12-12T12:31:04.515Z,11.35
2018-12-12T12:33:39.802Z,14.87
2018-12-12T12:36:08.463Z,11.93
2018-12-12T12:38:38.003Z,11.28
2018-12-12T12:41:12.875Z,13.40
2018-12-12T12:43:47.584Z,5.73
2018-12-12T12:46:16.156Z,5.17
2018-12-12T12:48:44.655Z,6.40
2018-12-12T12:51:13.339Z,5.33
2018-12-12T12:53:43.875Z,8.08
2018-12-12T12:56:12.580Z,9.57
2018-12-12T12:58:41.271Z,10.97
2018-12-12T13:01:16.148Z,9.97
2018-12-12T13:03:44.628Z,9.07
2018-12-12T13:06:13.228Z,11.00
2018-12-12T13:08:41.757Z,8.93
2018-12-12T13:11:14.789Z,10.03
2018-12-12T13:13:41.077Z,14.17
2018-12-12T13:16:15.798Z,8.70
2018-12-12T13:18:44.378Z,4.63
2018-12-12T13:21:13.131Z,8.80
2018-12-12T13:23:47.980Z,7.42
2018-12-12T13:26:22.805Z,11.80
2018-12-12T13:28:57.675Z,5.17
2018-12-12T13:31:26.133Z,6.37
2018-12-12T13:33:54.732Z,3.90
2018-12-12T13:36:29.704Z,4.80
2018-12-12T13:39:07.642Z,6.60
2018-12-12T13:41:37.149Z,4.77
2018-12-12T13:44:05.619Z,5.37
2018-12-12T13:46:34.222Z,5.33
2018-12-12T13:49:03.026Z,3.97
2018-12-12T13:51:37.941Z,3.70
2018-12-12T13:54:06.645Z,3.03
2018-12-12T13:56:41.503Z,3.00
2018-12-12T13:59:10.259Z,2.70
2018-12-12T14:01:45.120Z,3.03
2018-12-12T14:04:13.808Z,6.77
2018-12-12T14:06:42.308Z,7.53
2018-12-12T14:09:10.749Z,3.00
2018-12-12T14:11:39.095Z,5.17
2018-12-12T14:14:13.920Z,3.27
2018-12-12T14:16:45.355Z,2.77
2018-12-12T14:19:13.948Z,5.63
2018-12-12T14:21:48.844Z,5.80
2018-12-12T14:24:23.756Z,4.13
2018-12-12T14:26:58.640Z,6.90
2018-12-12T14:29:33.568Z,4.93
2018-12-12T14:32:02.700Z,6.33
2018-12-12T14:34:31.233Z,3.27
2018-12-12T14:36:59.829Z,11.28
2018-12-12T14:39:34.667Z,3.23
2018-12-12T14:42:09.311Z,5.57
2018-12-12T14:44:44.191Z,4.20
2018-12-12T14:47:13.684Z,4.17
2018-12-12T14:49:42.361Z,4.20
2018-12-12T14:52:17.174Z,3.63
2018-12-12T14:54:51.972Z,4.20
2018-12-12T14:57:21.917Z,2.57
2018-12-12T14:59:50.820Z,4.60
2018-12-12T15:02:25.624Z,11.25
2018-12-12T15:04:54.239Z,7.75
2018-12-12T15:07:29.205Z,5.47
2018-12-12T15:10:05.042Z,5.35
2018-12-12T15:12:33.749Z,5.28
2018-12-12T15:15:08.740Z,6.95
2018-12-12T15:17:37.460Z,3.92
2018-12-12T15:20:06.312Z,4.83
2018-12-12T15:22:35.005Z,5.37
2018-12-12T15:25:04.141Z,16.17
2018-12-12T15:27:39.056Z,6.62
2018-12-12T15:30:07.925Z,2.55
2018-12-12T15:32:36.752Z,2.60
2018-12-12T15:35:05.721Z,11.63
2018-12-12T15:37:34.508Z,3.25
2018-12-12T15:40:03.195Z,2.17
2018-12-12T15:42:37.956Z,3.45
2018-12-12T15:45:13.017Z,1.30
2018-12-12T15:47:41.483Z,3.55
2018-12-12T15:50:10.163Z,1.98
2018-12-12T15:52:38.911Z,3.22
2018-12-12T15:55:07.691Z,4.10
2018-12-12T15:57:36.389Z,2.05
2018-12-12T16:00:06.416Z,1.90
2018-12-12T16:02:35.171Z,1.90
2018-12-12T16:05:10.334Z,2.85
2018-12-12T16:07:38.743Z,4.62
2018-12-12T16:10:07.468Z,3.47
2018-12-12T16:12:42.312Z,3.72
2018-12-12T16:15:18.043Z,6.67
2018-12-12T16:17:46.919Z,1.90
2018-12-12T16:20:15.691Z,4.30
2018-12-12T16:22:44.367Z,5.25
2018-12-12T16:25:13.057Z,3.27
2018-12-12T16:27:41.745Z,5.75
2018-12-12T16:30:16.399Z,5.47
2018-12-12T16:32:45.025Z,9.90
2018-12-12T16:35:14.709Z,3.47
2018-12-12T16:37:49.791Z,12.20
2018-12-12T16:40:19.491Z,17.10
2018-12-12T16:42:48.254Z,36.28
2018-12-12T16:45:16.960Z,16.57
2018-12-12T16:47:45.427Z,11.60
2018-12-12T16:50:14.068Z,9.48
2018-12-12T16:52:42.756Z,5.87
2018-12-12T16:55:11.459Z,3.92
2018-12-12T16:57:46.324Z,8.58
2018-12-12T17:00:21.099Z,5.45
2018-12-12T17:02:49.719Z,8.08
2018-12-12T17:05:18.525Z,7.12
2018-12-12T17:07:47.291Z,8.75
2018-12-12T17:10:22.084Z,4.12
2018-12-12T17:12:50.806Z,5.55
2018-12-12T17:15:25.672Z,10.28
2018-12-12T17:17:54.435Z,9.13
2018-12-12T17:20:28.131Z,17.30
2018-12-12T17:22:56.831Z,10.28
2018-12-12T17:25:25.532Z,10.45
2018-12-12T17:27:54.220Z,13.05
2018-12-12T17:30:26.006Z,8.78
2018-12-12T17:33:00.817Z,5.05
2018-12-12T17:35:29.520Z,5.33
2018-12-12T17:37:58.795Z,6.10
2018-12-12T17:40:27.416Z,11.93
2018-12-12T17:42:56.111Z,13.38
2018-12-12T17:45:31.008Z,9.73
2018-12-12T17:47:59.467Z,5.80
2018-12-12T17:50:34.236Z,10.20
2018-12-12T17:53:02.938Z,7.55
2018-12-12T17:55:38.273Z,9.50
2018-12-12T17:58:07.196Z,8.05
2018-12-12T18:00:36.007Z,6.67
2018-12-12T18:03:04.705Z,10.88
2018-12-12T18:05:39.614Z,9.53
2018-12-12T18:08:14.352Z,7.53
2018-12-12T18:10:43.039Z,7.37
2018-12-12T18:13:17.861Z,7.87
2018-12-12T18:15:52.796Z,9.25
2018-12-12T18:18:21.521Z,9.40
2018-12-12T18:20:51.343Z,14.70
2018-12-12T18:23:26.379Z,11.90
2018-12-12T18:25:55.142Z,15.43
2018-12-12T18:28:23.784Z,11.73
2018-12-12T18:30:53.293Z,9.90
2018-12-12T18:33:22.064Z,5.85
2018-12-12T18:35:57.016Z,6.58
2018-12-12T18:38:25.793Z,7.10
2018-12-12T18:40:55.447Z,8.00
2018-12-12T18:43:30.087Z,6.55
2018-12-12T18:45:58.492Z,9.10
2018-12-12T18:48:27.087Z,5.72
2018-12-12T18:50:55.874Z,11.40
2018-12-12T18:53:24.592Z,16.35
2018-12-12T18:55:54.083Z,13.85
2018-12-12T18:58:28.947Z,9.63
2018-12-12T19:00:58.427Z,8.43
2018-12-12T19:03:27.185Z,9.98
2018-12-12T19:05:55.856Z,9.13
2018-12-12T19:08:24.541Z,6.42
2018-12-12T19:10:53.276Z,9.98
2018-12-12T19:13:21.952Z,6.72
2018-12-12T19:15:50.650Z,6.00
2018-12-12T19:18:19.258Z,7.53
2018-12-12T19:20:47.917Z,8.48
2018-12-12T19:23:23.331Z,5.80
2018-12-12T19:25:52.137Z,8.28
2018-12-12T19:28:21.759Z,8.40
2018-12-12T19:30:56.693Z,7.42
2018-12-12T19:33:25.400Z,17.17
2018-12-12T19:35:54.285Z,11.65
2018-12-12T19:38:29.059Z,9.35
2018-12-12T19:40:57.719Z,11.10
2018-12-12T19:43:26.531Z,10.03
2018-12-12T19:46:01.348Z,9.00
2018-12-12T19:48:29.919Z,6.92
2018-12-12T19:50:58.732Z,10.20
2018-12-12T19:53:33.527Z,13.83
2018-12-12T19:56:02.321Z,30.20
2018-12-12T19:58:31.029Z,15.20
2018-12-12T20:00:59.717Z,10.55
2018-12-12T20:03:28.491Z,5.87
2018-12-12T20:05:58.149Z,23.62
2018-12-12T20:08:26.915Z,16.97
2018-12-12T20:11:01.859Z,7.95
2018-12-12T20:13:36.915Z,11.70
2018-12-12T20:16:10.649Z,9.53
2018-12-12T20:18:39.355Z,11.00
2018-12-12T20:21:08.047Z,12.13
2018-12-12T20:23:36.936Z,17.90
2018-12-12T20:26:05.765Z,8.30
2018-12-12T20:28:34.640Z,10.05
2018-12-12T20:31:04.233Z,9.28
2018-12-12T20:33:39.147Z,17.50
2018-12-12T20:36:07.874Z,15.13
2018-12-12T20:38:42.729Z,4.12
2018-12-12T20:41:12.499Z,4.15
2018-12-12T20:43:53.844Z,13.28
2018-12-12T20:46:28.826Z,26.30
2018-12-12T20:48:57.573Z,14.45
2018-12-12T20:51:26.394Z,12.45
2018-12-12T20:53:55.252Z,9.28
2018-12-12T20:56:23.964Z,10.45
2018-12-12T20:58:52.752Z,10.15
2018-12-12T21:01:27.577Z,8.05
2018-12-12T21:03:56.267Z,6.83
2018-12-12T21:06:31.187Z,8.38
2018-12-12T21:09:06.695Z,6.67
2018-12-12T21:11:41.654Z,6.85
2018-12-12T21:14:11.183Z,13.80
2018-12-12T21:16:40.747Z,9.55
2018-12-12T21:19:17.573Z,9.68
2018-12-12T21:21:48.947Z,4.42
2018-12-12T21:24:18.365Z,4.12
2018-12-12T21:26:47.072Z,4.58
2018-12-12T21:29:22.090Z,5.72
2018-12-12T21:31:56.952Z,8.18
2018-12-12T21:34:25.674Z,10.00
2018-12-12T21:37:00.760Z,31.90
2018-12-12T21:39:32.289Z,16.42
2018-12-12T21:42:07.081Z,17.15
2018-12-12T21:44:35.772Z,4.78
2018-12-12T21:47:04.581Z,14.55
2018-12-12T21:49:33.055Z,11.22
2018-12-12T21:52:01.743Z,18.90
2018-12-12T21:54:36.652Z,11.33
2018-12-12T21:57:05.447Z,14.78
2018-12-12T21:59:40.240Z,16.70
2018-12-12T22:02:08.960Z,25.52
2018-12-12T22:04:37.667Z,12.10
2018-12-12T22:07:12.476Z,10.60
2018-12-12T22:09:47.458Z,11.53
2018-12-12T22:12:22.315Z,12.00
2018-12-12T22:14:51.027Z,6.25
2018-12-12T22:17:19.777Z,15.08
2018-12-12T22:19:54.956Z,7.85
2018-12-12T22:22:29.977Z,9.83
2018-12-12T22:24:59.284Z,6.03
2018-12-12T22:27:27.984Z,5.25
2018-12-12T22:29:56.819Z,5.72
2018-12-12T22:32:25.527Z,3.65
2018-12-12T22:34:55.118Z,4.12
2018-12-12T22:37:29.996Z,3.30
2018-12-12T22:39:58.787Z,4.10
2018-12-12T22:42:27.531Z,5.20
2018-12-12T22:44:56.259Z,8.08
2018-12-12T22:47:24.999Z,4.12
2018-12-12T22:49:59.825Z,3.77
2018-12-12T22:52:34.678Z,7.83
2018-12-12T22:55:03.258Z,4.35
2018-12-12T22:57:38.080Z,15.55
2018-12-12T23:00:10.059Z,12.65
2018-12-12T23:02:39.299Z,5.20
2018-12-12T23:05:08.169Z,5.00
2018-12-12T23:07:43.111Z,14.58
2018-12-12T23:10:17.968Z,14.63
2018-12-12T23:12:46.704Z,4.70
2018-12-12T23:15:15.572Z,6.35
2018-12-12T23:17:50.346Z,5.28
2018-12-12T23:20:19.084Z,4.78
2018-12-12T23:22:48.628Z,6.28
2018-12-12T23:25:17.371Z,4.22
2018-12-12T23:27:46.081Z,8.63
2018-12-12T23:30:14.807Z,4.62
2018-12-12T23:32:43.544Z,22.77
2018-12-12T23:35:12.879Z,20.12
2018-12-12T23:37:41.545Z,17.37
2018-12-12T23:40:10.311Z,10.65
2018-12-12T23:42:39.017Z,7.35
2018-12-12T23:45:13.739Z,6.25
2018-12-12T23:47:42.500Z,4.37
2018-12-12T23:50:11.348Z,7.80
2018-12-12T23:52:40.095Z,19.20
2018-12-12T23:55:08.852Z,12.75
2018-12-12T23:57:37.620Z,6.40
